<?xml version='1.0' encoding='UTF-8'?><gpx version="1.1" creator="JPX - https://github.com/jenetics/jpx" xmlns="http://www.topografix.com/GPX/1/1"><trk><trkseg><trkpt lat="45.0465226" lon="9.6723631"><ele>60.0</ele><time>2026-04-05T15:53:15.775Z</time></trkpt><trkpt lat="45.0465273" lon="9.6724531"><ele>60.0</ele><time>2026-04-05T15:53:30.374Z</time></trkpt><trkpt lat="45.046559" lon="9.6725314"><ele>60.0</ele><time>2026-04-05T15:54:16.386Z</time></trkpt><trkpt lat="45.0465084" lon="9.6724724"><ele>60.0</ele><time>2026-04-05T15:56:25.406Z</time></trkpt><trkpt lat="45.0465432" lon="9.6723981"><ele>60.0</ele><time>2026-04-05T16:03:53.45Z</time></trkpt><trkpt lat="45.0464798" lon="9.6723984"><ele>60.0</ele><time>2026-04-05T16:04:57.469Z</time></trkpt></trkseg><trkseg><trkpt lat="45.0408508" lon="9.6790889"><ele>60.99999999999999</ele><time>2026-04-05T16:58:35.65Z</time></trkpt><trkpt lat="45.0408074" lon="9.6790192"><ele>61.0</ele><time>2026-04-05T16:59:29.382Z</time></trkpt><trkpt lat="45.0407427" lon="9.6790086"><ele>60.99999999999999</ele><time>2026-04-05T17:04:29.233Z</time></trkpt><trkpt lat="45.0407404" lon="9.6789142"><ele>60.99999999999999</ele><time>2026-04-05T17:05:50.402Z</time></trkpt><trkpt lat="45.0407858" lon="9.6789815"><ele>61.0</ele><time>2026-04-05T17:07:03.383Z</time></trkpt><trkpt lat="45.040712" lon="9.6789818"><ele>60.99999999999999</ele><time>2026-04-05T17:08:02.42Z</time></trkpt><trkpt lat="45.0406597" lon="9.6789288"><ele>60.99999999999999</ele><time>2026-04-05T17:08:11.408Z</time></trkpt><trkpt lat="45.0405881" lon="9.6788583"><ele>61.0</ele><time>2026-04-05T17:08:18.435Z</time></trkpt><trkpt lat="45.0405645" lon="9.6787321"><ele>61.0</ele><time>2026-04-05T17:08:21.411Z</time></trkpt><trkpt lat="45.040523" lon="9.6786253"><ele>61.0</ele><time>2026-04-05T17:08:23.467Z</time></trkpt><trkpt lat="45.0406587" lon="9.6784092"><ele>61.0</ele><time>2026-04-05T17:08:24.398Z</time></trkpt><trkpt lat="45.0408223" lon="9.6781773"><ele>60.99999999999999</ele><time>2026-04-05T17:08:26.199Z</time></trkpt><trkpt lat="45.0408655" lon="9.6781075"><ele>61.0</ele><time>2026-04-05T17:08:27.199Z</time></trkpt><trkpt lat="45.0409183" lon="9.6780147"><ele>61.0</ele><time>2026-04-05T17:08:29.199Z</time></trkpt><trkpt lat="45.0409613" lon="9.6779465"><ele>61.0</ele><time>2026-04-05T17:08:33.199Z</time></trkpt><trkpt lat="45.0410649" lon="9.6780058"><ele>60.99999999999999</ele><time>2026-04-05T17:08:41.198Z</time></trkpt><trkpt lat="45.041139" lon="9.6780782"><ele>61.0</ele><time>2026-04-05T17:08:43.199Z</time></trkpt><trkpt lat="45.0412071" lon="9.6781629"><ele>61.0</ele><time>2026-04-05T17:08:45.199Z</time></trkpt><trkpt lat="45.0412831" lon="9.6782694"><ele>60.99999999999999</ele><time>2026-04-05T17:08:47.198Z</time></trkpt><trkpt lat="45.0413412" lon="9.6783305"><ele>60.99999999999999</ele><time>2026-04-05T17:08:48.198Z</time></trkpt><trkpt lat="45.0414203" lon="9.6784014"><ele>61.0</ele><time>2026-04-05T17:08:49.199Z</time></trkpt><trkpt lat="45.0414922" lon="9.6784796"><ele>61.0</ele><time>2026-04-05T17:08:50.198Z</time></trkpt><trkpt lat="45.0415737" lon="9.6785776"><ele>61.0</ele><time>2026-04-05T17:08:51.199Z</time></trkpt><trkpt lat="45.0416638" lon="9.6787009"><ele>61.0</ele><time>2026-04-05T17:08:52.199Z</time></trkpt><trkpt lat="45.0417614" lon="9.6788247"><ele>61.0</ele><time>2026-04-05T17:08:53.198Z</time></trkpt><trkpt lat="45.0418527" lon="9.6789305"><ele>61.0</ele><time>2026-04-05T17:08:54.199Z</time></trkpt><trkpt lat="45.0419232" lon="9.6790128"><ele>60.99999999999999</ele><time>2026-04-05T17:08:55.199Z</time></trkpt><trkpt lat="45.0419829" lon="9.6790806"><ele>61.0</ele><time>2026-04-05T17:08:56.199Z</time></trkpt><trkpt lat="45.0420337" lon="9.6791548"><ele>61.0</ele><time>2026-04-05T17:08:57.199Z</time></trkpt><trkpt lat="45.0420741" lon="9.6792301"><ele>61.0</ele><time>2026-04-05T17:08:58.199Z</time></trkpt><trkpt lat="45.0421322" lon="9.6793731"><ele>60.99999999999999</ele><time>2026-04-05T17:09:00.198Z</time></trkpt><trkpt lat="45.0422007" lon="9.679486"><ele>61.0</ele><time>2026-04-05T17:09:02.199Z</time></trkpt><trkpt lat="45.0422667" lon="9.679435"><ele>61.0</ele><time>2026-04-05T17:09:04.198Z</time></trkpt><trkpt lat="45.0423083" lon="9.679335"><ele>60.99999999999999</ele><time>2026-04-05T17:09:05.198Z</time></trkpt><trkpt lat="45.0423467" lon="9.6792283"><ele>60.99999999999999</ele><time>2026-04-05T17:09:06.199Z</time></trkpt><trkpt lat="45.042395" lon="9.6790983"><ele>61.0</ele><time>2026-04-05T17:09:07.198Z</time></trkpt><trkpt lat="45.04246" lon="9.678935"><ele>61.0</ele><time>2026-04-05T17:09:08.199Z</time></trkpt><trkpt lat="45.0425317" lon="9.6787633"><ele>60.666666666666664</ele><time>2026-04-05T17:09:09.199Z</time></trkpt><trkpt lat="45.0426083" lon="9.67858"><ele>60.33333333333333</ele><time>2026-04-05T17:09:10.198Z</time></trkpt><trkpt lat="45.0426917" lon="9.6783883"><ele>60.0</ele><time>2026-04-05T17:09:11.199Z</time></trkpt><trkpt lat="45.04278" lon="9.6781917"><ele>60.0</ele><time>2026-04-05T17:09:12.198Z</time></trkpt><trkpt lat="45.042865" lon="9.67799"><ele>60.0</ele><time>2026-04-05T17:09:13.199Z</time></trkpt><trkpt lat="45.0429467" lon="9.6777917"><ele>60.0</ele><time>2026-04-05T17:09:14.199Z</time></trkpt><trkpt lat="45.0430267" lon="9.6776"><ele>60.0</ele><time>2026-04-05T17:09:15.198Z</time></trkpt><trkpt lat="45.0431" lon="9.67742"><ele>60.0</ele><time>2026-04-05T17:09:16.199Z</time></trkpt><trkpt lat="45.0431667" lon="9.6772617"><ele>60.0</ele><time>2026-04-05T17:09:17.198Z</time></trkpt><trkpt lat="45.0432183" lon="9.677135"><ele>60.0</ele><time>2026-04-05T17:09:18.198Z</time></trkpt><trkpt lat="45.0432617" lon="9.6770283"><ele>59.666666666666664</ele><time>2026-04-05T17:09:19.198Z</time></trkpt><trkpt lat="45.0432983" lon="9.6769283"><ele>59.33333333333333</ele><time>2026-04-05T17:09:20.199Z</time></trkpt><trkpt lat="45.0433367" lon="9.6768317"><ele>59.0</ele><time>2026-04-05T17:09:21.199Z</time></trkpt><trkpt lat="45.043375" lon="9.676735"><ele>58.666666666666664</ele><time>2026-04-05T17:09:22.199Z</time></trkpt><trkpt lat="45.0434133" lon="9.6766417"><ele>58.33333333333333</ele><time>2026-04-05T17:09:23.198Z</time></trkpt><trkpt lat="45.043455" lon="9.6765583"><ele>58.0</ele><time>2026-04-05T17:09:24.198Z</time></trkpt><trkpt lat="45.04353" lon="9.6764233"><ele>58.0</ele><time>2026-04-05T17:09:26.198Z</time></trkpt><trkpt lat="45.0435933" lon="9.6764283"><ele>58.0</ele><time>2026-04-05T17:09:27.199Z</time></trkpt><trkpt lat="45.0436733" lon="9.6764767"><ele>58.0</ele><time>2026-04-05T17:09:28.198Z</time></trkpt><trkpt lat="45.0437683" lon="9.67655"><ele>58.0</ele><time>2026-04-05T17:09:29.198Z</time></trkpt><trkpt lat="45.0438633" lon="9.67662"><ele>58.0</ele><time>2026-04-05T17:09:30.198Z</time></trkpt><trkpt lat="45.0439467" lon="9.6766833"><ele>58.0</ele><time>2026-04-05T17:09:31.199Z</time></trkpt><trkpt lat="45.0440167" lon="9.67673"><ele>58.0</ele><time>2026-04-05T17:09:32.199Z</time></trkpt><trkpt lat="45.04409" lon="9.6767717"><ele>58.0</ele><time>2026-04-05T17:09:33.198Z</time></trkpt><trkpt lat="45.044165" lon="9.6768033"><ele>58.0</ele><time>2026-04-05T17:09:34.199Z</time></trkpt><trkpt lat="45.0442883" lon="9.6767467"><ele>58.0</ele><time>2026-04-05T17:09:36.198Z</time></trkpt><trkpt lat="45.0443333" lon="9.67662"><ele>59.0</ele><time>2026-04-05T17:09:37.199Z</time></trkpt><trkpt lat="45.044385" lon="9.6764817"><ele>60.0</ele><time>2026-04-05T17:09:38.198Z</time></trkpt><trkpt lat="45.0444433" lon="9.676335"><ele>61.0</ele><time>2026-04-05T17:09:39.198Z</time></trkpt><trkpt lat="45.0445017" lon="9.6761767"><ele>62.0</ele><time>2026-04-05T17:09:40.199Z</time></trkpt><trkpt lat="45.0445667" lon="9.676005"><ele>62.0</ele><time>2026-04-05T17:09:41.199Z</time></trkpt><trkpt lat="45.0446383" lon="9.675825"><ele>62.0</ele><time>2026-04-05T17:09:42.199Z</time></trkpt><trkpt lat="45.0447133" lon="9.675635"><ele>62.0</ele><time>2026-04-05T17:09:43.198Z</time></trkpt><trkpt lat="45.0447933" lon="9.67544"><ele>61.25</ele><time>2026-04-05T17:09:44.199Z</time></trkpt><trkpt lat="45.0448633" lon="9.6752417"><ele>60.5</ele><time>2026-04-05T17:09:45.199Z</time></trkpt><trkpt lat="45.0449283" lon="9.6750583"><ele>59.75</ele><time>2026-04-05T17:09:46.198Z</time></trkpt><trkpt lat="45.044985" lon="9.6749017"><ele>59.0</ele><time>2026-04-05T17:09:47.198Z</time></trkpt><trkpt lat="45.0450283" lon="9.6747933"><ele>59.00000000000001</ele><time>2026-04-05T17:09:48.198Z</time></trkpt><trkpt lat="45.0450867" lon="9.674655"><ele>59.0</ele><time>2026-04-05T17:09:50.199Z</time></trkpt><trkpt lat="45.04517" lon="9.67462"><ele>59.0</ele><time>2026-04-05T17:09:52.198Z</time></trkpt><trkpt lat="45.0452417" lon="9.6746667"><ele>59.0</ele><time>2026-04-05T17:09:53.199Z</time></trkpt><trkpt lat="45.0452983" lon="9.6747133"><ele>59.00000000000001</ele><time>2026-04-05T17:09:54.199Z</time></trkpt><trkpt lat="45.0453517" lon="9.6747617"><ele>59.0</ele><time>2026-04-05T17:09:55.199Z</time></trkpt><trkpt lat="45.0454067" lon="9.6748133"><ele>59.00000000000001</ele><time>2026-04-05T17:09:56.198Z</time></trkpt><trkpt lat="45.0454717" lon="9.67487"><ele>59.0</ele><time>2026-04-05T17:09:57.199Z</time></trkpt><trkpt lat="45.0455433" lon="9.67493"><ele>59.0</ele><time>2026-04-05T17:09:58.198Z</time></trkpt><trkpt lat="45.0456167" lon="9.6749967"><ele>59.0</ele><time>2026-04-05T17:09:59.199Z</time></trkpt><trkpt lat="45.0456933" lon="9.6750583"><ele>59.00000000000001</ele><time>2026-04-05T17:10:00.198Z</time></trkpt><trkpt lat="45.04577" lon="9.6751083"><ele>59.0</ele><time>2026-04-05T17:10:01.199Z</time></trkpt><trkpt lat="45.0458417" lon="9.6751517"><ele>59.6</ele><time>2026-04-05T17:10:02.199Z</time></trkpt><trkpt lat="45.0459283" lon="9.6752017"><ele>60.2</ele><time>2026-04-05T17:10:03.199Z</time></trkpt><trkpt lat="45.0460333" lon="9.675255"><ele>60.800000000000004</ele><time>2026-04-05T17:10:04.199Z</time></trkpt><trkpt lat="45.0461433" lon="9.6752767"><ele>61.400000000000006</ele><time>2026-04-05T17:10:05.199Z</time></trkpt><trkpt lat="45.0462533" lon="9.6752817"><ele>62.0</ele><time>2026-04-05T17:10:06.198Z</time></trkpt><trkpt lat="45.0463617" lon="9.67523"><ele>62.0</ele><time>2026-04-05T17:10:07.199Z</time></trkpt><trkpt lat="45.0464517" lon="9.67512"><ele>62.0</ele><time>2026-04-05T17:10:08.198Z</time></trkpt><trkpt lat="45.04654" lon="9.675"><ele>62.0</ele><time>2026-04-05T17:10:09.199Z</time></trkpt><trkpt lat="45.0466283" lon="9.6748633"><ele>62.0</ele><time>2026-04-05T17:10:10.199Z</time></trkpt><trkpt lat="45.04672" lon="9.6747117"><ele>61.75</ele><time>2026-04-05T17:10:11.198Z</time></trkpt><trkpt lat="45.0468133" lon="9.6745583"><ele>61.5</ele><time>2026-04-05T17:10:12.198Z</time></trkpt><trkpt lat="45.0469083" lon="9.6744"><ele>61.25</ele><time>2026-04-05T17:10:13.199Z</time></trkpt><trkpt lat="45.0470017" lon="9.674245"><ele>61.0</ele><time>2026-04-05T17:10:14.198Z</time></trkpt><trkpt lat="45.0470933" lon="9.6741017"><ele>60.4</ele><time>2026-04-05T17:10:15.198Z</time></trkpt><trkpt lat="45.0471833" lon="9.67396"><ele>59.8</ele><time>2026-04-05T17:10:16.198Z</time></trkpt><trkpt lat="45.0472567" lon="9.6738483"><ele>59.199999999999996</ele><time>2026-04-05T17:10:17.198Z</time></trkpt><trkpt lat="45.0473167" lon="9.6737567"><ele>58.599999999999994</ele><time>2026-04-05T17:10:18.198Z</time></trkpt><trkpt lat="45.04737" lon="9.673685"><ele>58.0</ele><time>2026-04-05T17:10:19.199Z</time></trkpt><trkpt lat="45.0474233" lon="9.6736217"><ele>58.2</ele><time>2026-04-05T17:10:20.199Z</time></trkpt><trkpt lat="45.047455" lon="9.67354"><ele>58.4</ele><time>2026-04-05T17:10:22.199Z</time></trkpt><trkpt lat="45.0474217" lon="9.6734383"><ele>58.60000000000001</ele><time>2026-04-05T17:10:24.199Z</time></trkpt><trkpt lat="45.0473533" lon="9.6732767"><ele>58.800000000000004</ele><time>2026-04-05T17:10:26.198Z</time></trkpt><trkpt lat="45.047305" lon="9.67317"><ele>59.0</ele><time>2026-04-05T17:10:27.199Z</time></trkpt><trkpt lat="45.0472483" lon="9.67306"><ele>59.0</ele><time>2026-04-05T17:10:28.198Z</time></trkpt><trkpt lat="45.0471767" lon="9.67296"><ele>59.0</ele><time>2026-04-05T17:10:29.199Z</time></trkpt><trkpt lat="45.0470783" lon="9.6728517"><ele>59.0</ele><time>2026-04-05T17:10:30.198Z</time></trkpt><trkpt lat="45.0469683" lon="9.6727383"><ele>59.0</ele><time>2026-04-05T17:10:31.199Z</time></trkpt><trkpt lat="45.0468783" lon="9.6726617"><ele>59.16666666666667</ele><time>2026-04-05T17:10:32.198Z</time></trkpt><trkpt lat="45.04681" lon="9.6726033"><ele>59.333333333333336</ele><time>2026-04-05T17:10:33.199Z</time></trkpt><trkpt lat="45.0467483" lon="9.672555"><ele>59.5</ele><time>2026-04-05T17:10:34.198Z</time></trkpt><trkpt lat="45.0466567" lon="9.67252"><ele>59.66666666666667</ele><time>2026-04-05T17:10:36.198Z</time></trkpt><trkpt lat="45.0465967" lon="9.6725567"><ele>59.833333333333336</ele><time>2026-04-05T17:10:38.199Z</time></trkpt><trkpt lat="45.0465233" lon="9.67261"><ele>60.0</ele><time>2026-04-05T17:10:40.198Z</time></trkpt><trkpt lat="45.0464483" lon="9.6726033"><ele>60.0</ele><time>2026-04-05T17:10:42.198Z</time></trkpt><trkpt lat="45.046365" lon="9.67257"><ele>60.0</ele><time>2026-04-05T17:10:45.199Z</time></trkpt><trkpt lat="45.0462567" lon="9.6726733"><ele>60.0</ele><time>2026-04-05T17:11:02.198Z</time></trkpt><trkpt lat="45.04619" lon="9.672735"><ele>60.0</ele><time>2026-04-05T17:11:04.199Z</time></trkpt><trkpt lat="45.04619" lon="9.672645"><ele>60.0</ele><time>2026-04-05T17:11:31.198Z</time></trkpt><trkpt lat="45.0464267" lon="9.6723459"><ele>60.0</ele><time>2026-04-05T17:11:43.901Z</time></trkpt><trkpt lat="45.046501" lon="9.672356"><ele>60.0</ele><time>2026-04-05T17:12:13.67Z</time></trkpt><trkpt lat="45.0465525" lon="9.6724174"><ele>60.0</ele><time>2026-04-05T17:12:19.265Z</time></trkpt></trkseg></trk></gpx>